Time;durP1;ratioP1;P1;durP2;ratioP2;P2;SDS_P1;SDS_P2;PMS_P1;PMS_P2;Temp;Humidity;BMP_temperature;BMP_pressure;BME280_temperature;BME280_humidity;BME280_pressure;Samples;Min_cycle;Max_cycle;Signal;HPM_P1;HPM_P2
2021/11/05 00:01:23;;;;;;;20.73;12.73;;;;;;;-139.48;100.00;61774.03;5034800;28;20079;-67
2021/11/05 00:04:07;;;;;;;17.95;10.95;;;;;;;-139.48;100.00;61774.03;5035096;28;20049;-67
2021/11/05 00:06:51;;;;;;;17.70;12.60;;;;;;;-139.48;100.00;61774.03;5018881;28;20419;-67
2021/11/05 00:09:35;;;;;;;17.77;12.48;;;;;;;-139.48;100.00;61774.03;5034837;28;20080;-67
2021/11/05 00:12:19;;;;;;;17.42;11.70;;;;;;;-139.48;100.00;61774.03;5019500;28;20103;-67
2021/11/05 00:15:04;;;;;;;16.67;12.23;;;;;;;-139.48;100.00;61774.03;5034909;28;20052;-68
2021/11/05 00:17:48;;;;;;;19.38;12.18;;;;;;;-139.48;100.00;61774.03;5005942;28;20048;-68
2021/11/05 00:20:32;;;;;;;17.63;12.07;;;;;;;-139.48;100.00;61774.03;5019760;28;20045;-67
2021/11/05 00:23:16;;;;;;;18.83;12.20;;;;;;;-139.48;100.00;61774.03;5019549;28;20052;-68
2021/11/05 00:26:00;;;;;;;21.05;12.15;;;;;;;-139.48;100.00;61774.03;5034892;28;20064;-67
2021/11/05 00:28:44;;;;;;;18.27;11.73;;;;;;;-139.48;100.00;61774.03;5019390;28;20107;-68
2021/11/05 00:31:28;;;;;;;;;;;;;;;-139.48;100.00;61774.03;5034937;28;20047;-68
2021/11/05 00:34:14;;;;;;;15.10;11.90;;;;;;;-139.48;100.00;61774.03;5019280;28;19919;-67
2021/11/05 00:36:58;;;;;;;20.17;13.18;;;;;;;-139.48;100.00;61774.03;5019505;28;20052;-68
2021/11/05 00:39:42;;;;;;;21.48;13.85;;;;;;;-139.48;100.00;61774.03;5005563;28;20585;-68
2021/11/05 00:42:26;;;;;;;19.23;13.05;;;;;;;-139.48;100.00;61774.03;5005533;28;20052;-66
2021/11/05 00:45:10;;;;;;;18.27;12.32;;;;;;;-139.48;100.00;61774.03;5034031;28;20128;-68
2021/11/05 00:47:54;;;;;;;20.80;13.95;;;;;;;-139.48;100.00;61774.03;5019209;28;20095;-68
2021/11/05 00:50:38;;;;;;;21.27;13.18;;;;;;;-139.48;100.00;61774.03;5005370;28;20501;-68
2021/11/05 00:53:22;;;;;;;18.00;12.82;;;;;;;-139.48;100.00;61774.03;5005146;28;20092;-68
2021/11/05 00:56:06;;;;;;;17.60;11.18;;;;;;;-139.48;100.00;61774.03;5005558;28;20052;-68
2021/11/05 00:58:50;;;;;;;13.43;8.50;;;;;;;-139.48;100.00;61774.03;5019110;28;20099;-67
2021/11/05 01:01:34;;;;;;;19.83;13.05;;;;;;;-139.48;100.00;61774.03;5019253;28;20568;-68
2021/11/05 01:04:18;;;;;;;18.67;12.52;;;;;;;-139.48;100.00;61774.03;5018750;28;20052;-68
2021/11/05 01:07:02;;;;;;;;;;;;;;;-139.48;100.00;61774.03;5019417;28;20628;-68
2021/11/05 01:09:46;;;;;;;18.67;13.02;;;;;;;-139.48;100.00;61774.03;5018951;28;19919;-68
2021/11/05 01:12:30;;;;;;;17.13;11.18;;;;;;;-139.48;100.00;61774.03;5033449;28;20517;-68
2021/11/05 01:15:14;;;;;;;18.13;12.68;;;;;;;-139.48;100.00;61774.03;5033804;28;20068;-68
2021/11/05 01:17:58;;;;;;;17.25;12.05;;;;;;;-139.48;100.00;61774.03;5018472;28;20049;-68
2021/11/05 01:20:42;;;;;;;17.30;12.77;;;;;;;-139.48;100.00;61774.03;5004604;28;20048;-67
2021/11/05 01:23:26;;;;;;;15.70;11.48;;;;;;;-139.48;100.00;61774.03;5004896;28;20052;-68
2021/11/05 01:26:10;;;;;;;15.52;11.73;;;;;;;-139.48;100.00;61774.03;5018622;28;20049;-68
2021/11/05 01:28:54;;;;;;;19.30;12.27;;;;;;;-139.48;100.00;61774.03;5004680;28;20099;-67
2021/11/05 01:31:38;;;;;;;17.45;11.02;;;;;;;-139.48;100.00;61774.03;5018383;28;20128;-68
2021/11/05 01:34:22;;;;;;;14.32;10.40;;;;;;;-139.48;100.00;61774.03;5033526;28;20063;-67
2021/11/05 01:37:07;;;;;;;14.60;10.18;;;;;;;-139.48;100.00;61774.03;5018539;28;20517;-67
2021/11/05 01:39:51;;;;;;;16.92;10.63;;;;;;;-139.48;100.00;61774.03;5018481;28;20576;-68
2021/11/05 01:42:36;;;;;;;19.17;10.77;;;;;;;-139.48;100.00;61774.03;5018247;28;20172;-68
2021/11/05 01:45:20;;;;;;;16.30;11.75;;;;;;;-139.48;100.00;61774.03;5018496;28;20043;-66
2021/11/05 01:48:04;;;;;;;14.35;10.45;;;;;;;-139.48;100.00;61774.03;5018370;28;20040;-68
2021/11/05 01:50:48;;;;;;;17.85;10.35;;;;;;;-139.48;100.00;61774.03;5018078;28;20136;-67
2021/11/05 01:53:32;;;;;;;12.13;8.70;;;;;;;-139.48;100.00;61774.03;5018377;28;20516;-68
2021/11/05 01:56:17;;;;;;;11.30;7.65;;;;;;;-139.48;100.00;61774.03;5018174;28;20084;-68
2021/11/05 01:59:01;;;;;;;17.17;10.75;;;;;;;-139.48;100.00;61774.03;5018378;28;20056;-68
2021/11/05 02:01:45;;;;;;;;;;;;;;;-139.48;100.00;61774.03;5018949;28;20095;-68
2021/11/05 02:04:29;;;;;;;15.32;10.35;;;;;;;-139.48;100.00;61774.03;5018130;28;19963;-68
2021/11/05 02:07:14;;;;;;;14.45;10.68;;;;;;;-139.48;100.00;61774.03;5004155;28;20048;-68
2021/11/05 02:09:58;;;;;;;16.27;9.77;;;;;;;-139.48;100.00;61774.03;5033419;28;20053;-68
2021/11/05 02:12:43;;;;;;;17.17;9.88;;;;;;;-139.48;100.00;61774.03;5017831;28;20095;-68
2021/11/05 02:15:27;;;;;;;6.03;3.60;;;;;;;-139.48;100.00;61774.03;5018011;28;20190;-68
2021/11/05 02:18:11;;;;;;;15.00;4.90;;;;;;;-139.48;100.00;61774.03;5018152;28;20076;-68
2021/11/05 02:20:56;;;;;;;14.13;9.40;;;;;;;-139.48;100.00;61774.03;5018093;28;20133;-68
2021/11/05 02:23:41;;;;;;;15.02;8.82;;;;;;;-139.48;100.00;61774.03;5003973;28;20100;-68
2021/11/05 02:26:25;;;;;;;15.75;10.02;;;;;;;-139.48;100.00;61774.03;5018067;28;20155;-67
2021/11/05 02:29:10;;;;;;;22.67;10.85;;;;;;;-139.48;100.00;61774.03;5017813;28;20057;-68
2021/11/05 02:31:54;;;;;;;17.38;10.38;;;;;;;-139.48;100.00;61774.03;5036623;28;20567;-68
2021/11/05 02:34:39;;;;;;;13.65;9.63;;;;;;;-139.48;100.00;61774.03;5021483;28;20414;-68
2021/11/05 02:37:25;;;;;;;12.95;7.53;;;;;;;-139.48;100.00;61774.03;5021726;28;20513;-68
2021/11/05 02:40:10;;;;;;;13.77;8.80;;;;;;;-139.48;100.00;61774.03;5007799;28;20047;-68
2021/11/05 02:42:54;;;;;;;15.10;10.02;;;;;;;-139.48;100.00;61774.03;5007944;28;20045;-68
2021/11/05 02:45:47;;;;;;;15.18;10.65;;;;;;;-139.48;100.00;61774.03;5021882;28;20544;-68
2021/11/05 02:48:32;;;;;;;13.98;8.20;;;;;;;-139.48;100.00;61774.03;5007391;28;20134;-68
2021/11/05 02:51:15;;;;;;;11.52;7.75;;;;;;;-139.48;100.00;61774.03;5021185;28;20094;-67
2021/11/05 02:54:02;;;;;;;14.80;10.55;;;;;;;-139.48;100.00;61774.03;5021415;28;20084;-68
2021/11/05 02:56:46;;;;;;;15.90;10.43;;;;;;;-139.48;100.00;61774.03;5021080;28;20119;-68
2021/11/05 02:59:30;;;;;;;15.38;10.00;;;;;;;-139.48;100.00;61774.03;5021370;28;20095;-68
2021/11/05 03:02:14;;;;;;;14.90;10.93;;;;;;;-139.48;100.00;61774.03;5036177;28;20047;-68
2021/11/05 03:04:58;;;;;;;17.30;10.15;;;;;;;-139.48;100.00;61774.03;5007058;28;20075;-68
2021/11/05 03:07:42;;;;;;;15.52;8.63;;;;;;;-139.48;100.00;61774.03;5035991;28;20117;-67
2021/11/05 03:10:26;;;;;;;16.25;10.55;;;;;;;-139.48;100.00;61774.03;5020800;28;20466;-68
2021/11/05 03:13:10;;;;;;;;;;;;;;;-139.48;100.00;61774.03;5021483;28;20665;-68
2021/11/05 03:15:54;;;;;;;18.27;10.05;;;;;;;-139.48;100.00;61774.03;5036222;28;19920;-68
2021/11/05 03:18:42;;;;;;;13.93;10.27;;;;;;;-139.48;100.00;61774.03;5020967;28;20552;-68
2021/11/05 03:21:26;;;;;;;16.02;10.32;;;;;;;-139.48;100.00;61774.03;5035845;28;20049;-68
2021/11/05 03:24:09;;;;;;;15.60;10.15;;;;;;;-139.48;100.00;61774.03;5020625;28;20056;-68
2021/11/05 03:26:54;;;;;;;15.80;10.35;;;;;;;-139.48;100.00;61774.03;5020951;28;20099;-68
2021/11/05 03:29:38;;;;;;;21.50;11.93;;;;;;;-139.48;100.00;61774.03;5006710;28;20048;-68
2021/11/05 03:32:22;;;;;;;18.23;11.88;;;;;;;-139.48;100.00;61774.03;5035506;28;20483;-68
2021/11/05 03:35:07;;;;;;;16.77;11.80;;;;;;;-139.48;100.00;61774.03;5006614;28;20100;-68
2021/11/05 03:37:51;;;;;;;21.55;12.15;;;;;;;-139.48;100.00;61774.03;5006764;28;20095;-68
2021/11/05 03:40:36;;;;;;;18.13;12.27;;;;;;;-139.48;100.00;61774.03;5021758;28;20115;-69
2021/11/05 03:43:21;;;;;;;16.33;11.13;;;;;;;-139.48;100.00;61774.03;5020246;28;20048;-68
2021/11/05 03:46:06;;;;;;;17.23;11.43;;;;;;;-139.48;100.00;61774.03;5020383;28;20068;-68
2021/11/05 03:48:50;;;;;;;17.20;12.32;;;;;;;-139.48;100.00;61774.03;5035421;28;20049;-68
2021/11/05 03:51:34;;;;;;;20.45;12.43;;;;;;;-139.48;100.00;61774.03;5035169;28;20048;-68
2021/11/05 03:54:18;;;;;;;17.05;11.90;;;;;;;-139.48;100.00;61774.03;5020299;28;20099;-68
2021/11/05 03:57:03;;;;;;;16.42;11.82;;;;;;;-139.48;100.00;61774.03;5020259;28;20092;-68
2021/11/05 03:59:47;;;;;;;18.35;11.65;;;;;;;-139.48;100.00;61774.03;5020187;28;20056;-68
2021/11/05 04:02:31;;;;;;;16.20;10.30;;;;;;;-139.48;100.00;61774.03;5034913;28;20115;-68
2021/11/05 04:05:15;;;;;;;18.80;12.25;;;;;;;-139.48;100.00;61774.03;5020141;28;20076;-67
2021/11/05 04:07:59;;;;;;;16.48;11.07;;;;;;;-139.48;100.00;61774.03;5006166;28;20056;-68
2021/11/05 04:10:44;;;;;;;16.77;11.88;;;;;;;-139.48;100.00;61774.03;5034801;28;20524;-68
2021/11/05 04:13:28;;;;;;;15.55;10.70;;;;;;;-139.48;100.00;61774.03;5019740;28;20095;-68
2021/11/05 04:16:12;;;;;;;;;;;;;;;-139.48;100.00;61774.03;5019983;28;20048;-68
2021/11/05 04:18:57;;;;;;;16.17;11.73;;;;;;;-139.48;100.00;61774.03;5034568;28;19920;-68
2021/11/05 04:21:41;;;;;;;15.45;11.40;;;;;;;-139.48;100.00;61774.03;5019645;28;20478;-68
2021/11/05 04:24:25;;;;;;;20.23;11.40;;;;;;;-139.48;100.00;61774.03;5019715;28;20056;-68
2021/11/05 04:27:09;;;;;;;;;;;;;;;-139.48;100.00;61774.03;5019863;28;20048;-68
2021/11/05 04:29:53;;;;;;;23.27;13.60;;;;;;;-139.48;100.00;61774.03;5019642;28;20025;-68
2021/11/05 04:32:37;;;;;;;17.70;12.18;;;;;;;-139.48;100.00;61774.03;5019306;28;20083;-68
2021/11/05 04:35:21;;;;;;;21.17;12.90;;;;;;;-139.48;100.00;61774.03;5034279;28;20053;-67
2021/11/05 04:38:05;;;;;;;18.23;12.35;;;;;;;-139.48;100.00;61774.03;5019479;28;20072;-68
2021/11/05 04:40:49;;;;;;;18.52;11.57;;;;;;;-139.48;100.00;61774.03;5019133;28;20106;-68
2021/11/05 04:43:33;;;;;;;17.95;12.18;;;;;;;-139.48;100.00;61774.03;5034567;28;20047;-68
2021/11/05 04:46:18;;;;;;;19.48;12.27;;;;;;;-139.48;100.00;61774.03;5019515;28;20397;-68
2021/11/05 04:49:03;;;;;;;19.08;11.52;;;;;;;-139.48;100.00;61774.03;5019098;28;20064;-68
2021/11/05 04:51:47;;;;;;;16.58;11.25;;;;;;;-139.48;100.00;61774.03;5034103;28;20118;-68
2021/11/05 04:54:31;;;;;;;18.73;11.70;;;;;;;-139.48;100.00;61774.03;5018805;28;20052;-68
2021/11/05 04:57:14;;;;;;;21.38;12.05;;;;;;;-139.48;100.00;61774.03;5019193;28;20060;-68
2021/11/05 04:59:59;;;;;;;18.63;12.50;;;;;;;-139.48;100.00;61774.03;5034121;28;20044;-68
2021/11/05 05:02:43;;;;;;;23.98;12.23;;;;;;;-139.48;100.00;61774.03;5018723;28;20130;-68
2021/11/05 05:05:27;;;;;;;17.88;11.68;;;;;;;-139.48;100.00;61774.03;5034002;28;20143;-69
2021/11/05 05:08:11;;;;;;;18.83;11.10;;;;;;;-139.48;100.00;61774.03;5019250;28;20164;-68
2021/11/05 05:10:55;;;;;;;20.63;12.15;;;;;;;-139.48;100.00;61774.03;5018726;28;20052;-69
2021/11/05 05:13:40;;;;;;;19.70;14.00;;;;;;;-139.48;100.00;61774.03;5033562;28;20048;-68
2021/11/05 05:16:25;;;;;;;21.92;13.90;;;;;;;-139.48;100.00;61774.03;5018914;28;20540;-69
2021/11/05 05:19:09;;;;;;;19.40;13.45;;;;;;;-139.48;100.00;61774.03;5018896;28;20405;-69
2021/11/05 05:21:53;;;;;;;19.48;12.77;;;;;;;-139.48;100.00;61774.03;5018601;28;20052;-68
2021/11/05 05:24:37;;;;;;;17.42;12.13;;;;;;;-139.48;100.00;61774.03;5018731;28;20441;-68
2021/11/05 05:27:21;;;;;;;16.33;11.35;;;;;;;-139.48;100.00;61774.03;5018791;28;20056;-68
2021/11/05 05:30:07;;;;;;;;;;;;;;;-139.48;100.00;61774.03;5019057;28;20197;-68
2021/11/05 05:32:51;;;;;;;16.00;11.23;;;;;;;-139.48;100.00;61774.03;5018550;28;19924;-68
2021/11/05 05:35:35;;;;;;;19.13;12.50;;;;;;;-139.48;100.00;61774.03;5033228;28;20510;-68
2021/11/05 05:38:19;;;;;;;20.17;11.55;;;;;;;-139.48;100.00;61774.03;5018510;28;20518;-68
2021/11/05 05:41:04;;;;;;;20.55;13.38;;;;;;;-139.48;100.00;61774.03;5018149;28;20095;-68
2021/11/05 05:43:48;;;;;;;20.50;12.18;;;;;;;-139.48;100.00;61774.03;5018397;28;20048;-68
2021/11/05 05:46:31;;;;;;;;;;;;;;;-139.48;100.00;61774.03;5004946;28;20521;-68
2021/11/05 05:49:15;;;;;;;23.63;12.85;;;;;;;-139.48;100.00;61774.03;5004834;28;20411;-68
2021/11/05 05:51:59;;;;;;;22.80;13.52;;;;;;;-139.48;100.00;61774.03;5018053;28;20047;-68
2021/11/05 05:54:43;;;;;;;24.42;12.50;;;;;;;-139.48;100.00;61774.03;5033093;28;20099;-68
2021/11/05 05:57:27;;;;;;;;;;;;;;;-139.48;100.00;61774.03;5004860;28;20047;-68
2021/11/05 06:00:14;;;;;;;23.23;13.93;;;;;;;-139.48;100.00;61774.03;5018418;28;20407;-68
2021/11/05 06:02:59;;;;;;;21.58;13.32;;;;;;;-139.48;100.00;61774.03;5018141;28;20053;-68
2021/11/05 06:05:43;;;;;;;21.27;14.32;;;;;;;-139.48;100.00;61774.03;5022245;28;20593;-68
2021/11/05 06:08:27;;;;;;;24.33;13.75;;;;;;;-139.48;100.00;61774.03;5037299;28;20049;-68
2021/11/05 06:11:11;;;;;;;24.35;14.35;;;;;;;-139.48;100.00;61774.03;5022150;28;20059;-68
2021/11/05 06:13:55;;;;;;;23.05;14.90;;;;;;;-139.48;100.00;61774.03;5022210;28;20088;-68
2021/11/05 06:16:40;;;;;;;23.75;15.55;;;;;;;-139.48;100.00;61774.03;5022242;28;20406;-68
2021/11/05 06:19:26;;;;;;;22.77;14.75;;;;;;;-139.48;100.00;61774.03;5022096;28;20048;-68
2021/11/05 06:22:11;;;;;;;26.10;15.68;;;;;;;-139.48;100.00;61774.03;5021961;28;20048;-68
2021/11/05 06:24:57;;;;;;;21.15;13.45;;;;;;;-139.48;100.00;61774.03;5022171;28;20502;-68
2021/11/05 06:27:42;;;;;;;25.17;15.63;;;;;;;-139.48;100.00;61774.03;5008009;28;20099;-68
2021/11/05 06:30:26;;;;;;;24.17;15.50;;;;;;;-139.48;100.00;61774.03;5022164;28;20055;-68
2021/11/05 06:33:10;;;;;;;24.27;15.75;;;;;;;-139.48;100.00;61774.03;5008281;28;20099;-68
2021/11/05 06:35:54;;;;;;;22.13;16.20;;;;;;;-139.48;100.00;61774.03;5021754;28;20128;-67
2021/11/05 06:38:38;;;;;;;25.92;16.50;;;;;;;-139.48;100.00;61774.03;5007588;28;20068;-68
2021/11/05 06:41:23;;;;;;;24.23;15.50;;;;;;;-139.48;100.00;61774.03;5007903;28;20056;-68
2021/11/05 06:44:07;;;;;;;25.35;15.63;;;;;;;-139.48;100.00;61774.03;5021870;28;20052;-68
2021/11/05 06:46:51;;;;;;;23.30;14.85;;;;;;;-139.48;100.00;61774.03;5036566;28;20057;-68
2021/11/05 06:49:35;;;;;;;;;;;;;;;-139.48;100.00;61774.03;5021965;28;20103;-68
2021/11/05 06:52:19;;;;;;;25.63;14.98;;;;;;;-139.48;100.00;61774.03;5036172;28;19920;-68
2021/11/05 06:55:05;;;;;;;22.83;13.43;;;;;;;-139.48;100.00;61774.03;5021294;28;20569;-69
2021/11/05 06:57:49;;;;;;;26.45;15.35;;;;;;;-139.48;100.00;61774.03;5021388;28;20052;-68
2021/11/05 07:00:33;;;;;;;22.13;13.07;;;;;;;-139.48;100.00;61774.03;5021365;28;20068;-68
2021/11/05 07:03:17;;;;;;;20.27;13.85;;;;;;;-139.48;100.00;61774.03;5021301;28;20503;-68
2021/11/05 07:06:01;;;;;;;22.98;14.45;;;;;;;-139.48;100.00;61774.03;5021171;28;20560;-68
2021/11/05 07:08:44;;;;;;;20.40;13.90;;;;;;;-139.48;100.00;61774.03;5007403;28;20103;-68
2021/11/05 07:11:28;;;;;;;21.35;14.13;;;;;;;-139.48;100.00;61774.03;5020708;28;20055;-68
2021/11/05 07:14:13;;;;;;;23.92;14.95;;;;;;;-139.48;100.00;61774.03;5020778;28;20126;-68
2021/11/05 07:16:57;;;;;;;22.90;15.20;;;;;;;-139.48;100.00;61774.03;5020671;28;20548;-68
2021/11/05 07:19:41;;;;;;;22.80;15.73;;;;;;;-139.48;100.00;61774.03;5020712;28;20072;-68
2021/11/05 07:22:25;;;;;;;20.30;14.35;;;;;;;-139.48;100.00;61774.03;5035625;28;20044;-67
2021/11/05 07:25:10;;;;;;;20.50;13.98;;;;;;;-139.48;100.00;61774.03;5020966;28;20099;-68
2021/11/05 07:27:54;;;;;;;21.75;13.45;;;;;;;-139.48;100.00;61774.03;5020857;28;20563;-68
2021/11/05 07:30:38;;;;;;;23.45;14.38;;;;;;;-139.48;100.00;61774.03;5020508;28;20051;-68
2021/11/05 07:33:22;;;;;;;20.90;14.65;;;;;;;-139.48;100.00;61774.03;5020701;28;20064;-68
2021/11/05 07:36:06;;;;;;;23.77;12.63;;;;;;;-139.48;100.00;61774.03;5020441;28;20053;-68
2021/11/05 07:38:50;;;;;;;20.00;13.88;;;;;;;-139.48;100.00;61774.03;5020557;28;20107;-67
2021/11/05 07:41:35;;;;;;;20.95;14.05;;;;;;;-139.48;100.00;61774.03;5020624;28;20484;-68
2021/11/05 07:44:19;;;;;;;22.05;14.90;;;;;;;-139.48;100.00;61774.03;5006689;28;20118;-68
2021/11/05 07:47:04;;;;;;;21.90;14.45;;;;;;;-139.48;100.00;61774.03;5020151;28;20049;-68
2021/11/05 07:49:50;;;;;;;22.10;13.80;;;;;;;-139.48;100.00;61774.03;5020746;28;20108;-68
2021/11/05 07:52:34;;;;;;;19.42;13.13;;;;;;;-139.48;100.00;61774.03;5020595;28;20467;-68
2021/11/05 07:55:20;;;;;;;19.52;12.95;;;;;;;-139.48;100.00;61774.03;5020384;28;20048;-68
2021/11/05 07:58:04;;;;;;;20.73;13.00;;;;;;;-139.48;100.00;61774.03;5020234;28;20049;-69
2021/11/05 08:00:48;;;;;;;18.48;12.07;;;;;;;-139.48;100.00;61774.03;5035137;28;20521;-68
2021/11/05 08:03:32;;;;;;;18.58;12.13;;;;;;;-139.48;100.00;61774.03;5020203;28;20052;-68
2021/11/05 08:06:16;;;;;;;22.40;12.02;;;;;;;-139.48;100.00;61774.03;5019737;28;20521;-68
2021/11/05 08:09:01;;;;;;;19.50;11.68;;;;;;;-139.48;100.00;61774.03;5006256;28;20520;-68
2021/11/05 08:11:46;;;;;;;23.05;14.38;;;;;;;-139.48;100.00;61774.03;5019816;28;20048;-69
2021/11/05 08:14:30;;;;;;;23.90;14.13;;;;;;;-139.48;100.00;61774.03;5019962;28;20052;-68
2021/11/05 08:17:14;;;;;;;22.08;14.23;;;;;;;-139.48;100.00;61774.03;5006139;28;20056;-68
2021/11/05 08:19:57;;;;;;;18.90;13.57;;;;;;;-139.48;100.00;61774.03;5005934;28;20118;-69
2021/11/05 08:22:43;;;;;;;20.33;13.05;;;;;;;-139.48;100.00;61774.03;5034747;28;20056;-68
2021/11/05 08:25:28;;;;;;;17.77;10.50;;;;;;;-139.48;100.00;61774.03;5019570;28;20048;-68
2021/11/05 08:28:12;;;;;;;15.77;10.75;;;;;;;-139.48;100.00;61774.03;5005002;28;20044;-68
2021/11/05 08:30:57;;;;;;;23.55;13.02;;;;;;;-139.48;100.00;61774.03;5034518;28;20080;-69
2021/11/05 08:33:41;;;;;;;18.10;12.18;;;;;;;-139.48;100.00;61774.03;5019367;28;20517;-68
2021/11/05 08:36:26;;;;;;;13.90;8.88;;;;;;;-139.48;100.00;61774.03;5005687;28;20509;-68
2021/11/05 08:39:09;;;;;;;15.25;10.90;;;;;;;-139.48;100.00;61774.03;5019516;28;20052;-68
2021/11/05 08:41:53;;;;;;;18.67;10.98;;;;;;;-139.48;100.00;61774.03;5019207;28;20051;-68
2021/11/05 08:44:37;;;;;;;15.88;11.02;;;;;;;-139.48;100.00;61774.03;5005436;28;20045;-68
2021/11/05 08:47:21;;;;;;;18.70;13.05;;;;;;;-139.48;100.00;61774.03;5005369;28;20144;-69
2021/11/05 08:50:10;;;;;;;18.65;10.45;;;;;;;-139.48;100.00;61774.03;5005432;28;20166;-69
2021/11/05 08:52:54;;;;;;;15.07;11.05;;;;;;;-139.48;100.00;61774.03;5005196;28;20052;-68
2021/11/05 08:55:39;;;;;;;14.77;9.18;;;;;;;-139.48;100.00;61774.03;5019470;28;20068;-69
2021/11/05 08:58:23;;;;;;;14.48;10.43;;;;;;;-139.48;100.00;61774.03;5019264;28;20548;-69
2021/11/05 09:01:07;;;;;;;14.75;9.30;;;;;;;-139.48;100.00;61774.03;5005192;28;20048;-68
2021/11/05 09:03:52;;;;;;;16.27;9.60;;;;;;;-139.48;100.00;61774.03;5005244;28;20051;-69
2021/11/05 09:06:35;;;;;;;13.95;10.70;;;;;;;-139.48;100.00;61774.03;5018929;28;20052;-69
2021/11/05 09:09:21;;;;;;;;;;;;;;;-139.48;100.00;61774.03;5019348;28;20072;-67
2021/11/05 09:12:05;;;;;;;15.18;9.07;;;;;;;-139.48;100.00;61774.03;5018867;28;19924;-69
2021/11/05 09:14:49;;;;;;;13.88;10.45;;;;;;;-139.48;100.00;61774.03;5018875;28;20145;-69
2021/11/05 09:17:35;;;;;;;14.35;10.05;;;;;;;-139.48;100.00;61774.03;5033714;28;20116;-69
2021/11/05 09:20:19;;;;;;;13.55;8.88;;;;;;;-139.48;100.00;61774.03;5018865;28;20509;-69
2021/11/05 09:23:03;;;;;;;15.57;8.95;;;;;;;-139.48;100.00;61774.03;5018389;28;20052;-68
2021/11/05 09:25:46;;;;;;;13.55;9.00;;;;;;;-139.48;100.00;61774.03;5004796;28;20135;-69
2021/11/05 09:28:30;;;;;;;15.25;9.70;;;;;;;-139.48;100.00;61774.03;5018645;28;20121;-69
2021/11/05 09:31:14;;;;;;;12.60;9.00;;;;;;;-139.48;100.00;61774.03;5018450;28;20189;-68
2021/11/05 09:33:58;;;;;;;14.10;8.43;;;;;;;-139.48;100.00;61774.03;5018644;28;20092;-69
2021/11/05 09:36:42;;;;;;;13.27;9.27;;;;;;;-139.48;100.00;61774.03;5018266;28;20119;-67
2021/11/05 09:39:26;;;;;;;10.55;8.25;;;;;;;-139.48;100.00;61774.03;5004462;28;20134;-68
2021/11/05 09:42:10;;;;;;;15.10;9.05;;;;;;;-139.48;100.00;61774.03;5005924;28;20178;-66
2021/11/05 09:44:54;;;;;;;12.80;8.80;;;;;;;-139.48;100.00;61774.03;5018428;28;20079;-70
2021/11/05 09:47:42;;;;;;;10.60;8.38;;;;;;;-139.48;100.00;61774.03;5033090;28;20055;-70
2021/11/05 09:50:27;;;;;;;13.80;9.88;;;;;;;-139.48;100.00;61774.03;5004899;28;20135;-70
2021/11/05 09:53:11;;;;;;;11.68;8.75;;;;;;;-139.48;100.00;61774.03;5004414;28;20128;-69
2021/11/05 09:55:56;;;;;;;;;;;;;;;-139.48;100.00;61774.03;5018811;28;20068;-70
2021/11/05 09:58:42;;;;;;;;;;;;;;;-139.48;100.00;61774.03;5019231;28;19920;-70
2021/11/05 10:01:26;;;;;;;12.32;9.00;;;;;;;-139.48;100.00;61774.03;5018727;28;19928;-70
2021/11/05 10:04:10;;;;;;;12.20;9.05;;;;;;;-139.48;100.00;61774.03;5004399;28;20136;-69
2021/11/05 10:07:03;;;;;;;16.25;10.07;;;;;;;-139.48;100.00;61774.03;5004272;28;20463;-70
2021/11/05 10:09:53;;;;;;;14.37;9.20;;;;;;;-139.48;100.00;61774.03;5004382;28;20044;-70
2021/11/05 10:12:37;;;;;;;12.95;9.48;;;;;;;-139.48;100.00;61774.03;5032930;28;20529;-70
2021/11/05 10:15:27;;;;;;;11.10;8.35;;;;;;;-139.48;100.00;61774.03;5004026;28;20476;-69
2021/11/05 10:18:20;;;;;;;10.30;8.38;;;;;;;-139.48;100.00;61774.03;5004421;28;20091;-69
2021/11/05 10:21:13;;;;;;;13.35;8.10;;;;;;;-139.48;100.00;61774.03;5003934;28;20044;-70
2021/11/05 10:24:09;;;;;;;13.68;8.85;;;;;;;-139.48;100.00;61774.03;5017721;28;20076;-70
2021/11/05 10:26:54;;;;;;;9.95;7.78;;;;;;;-139.48;100.00;61774.03;5018017;28;20045;-70
2021/11/05 10:29:37;;;;;;;10.13;8.20;;;;;;;-139.48;100.00;61774.03;5017766;28;20048;-71
2021/11/05 10:32:21;;;;;;;9.63;7.10;;;;;;;-139.48;100.00;61774.03;5032700;28;20056;-70
2021/11/05 10:35:21;;;;;;;10.35;7.30;;;;;;;-139.48;100.00;61774.03;5018107;28;20414;-70
2021/11/05 10:38:07;;;;;;;8.57;7.30;;;;;;;-139.48;100.00;61774.03;5004837;28;20076;-67
2021/11/05 10:40:54;;;;;;;12.07;7.03;;;;;;;-139.48;100.00;61774.03;5017786;28;20137;-70
2021/11/05 10:43:46;;;;;;;11.75;7.40;;;;;;;-139.48;100.00;61774.03;5003987;28;20560;-69
2021/11/05 10:46:31;;;;;;;9.50;7.55;;;;;;;-139.48;100.00;61774.03;5032711;28;20049;-69
2021/11/05 10:49:25;;;;;;;11.50;7.03;;;;;;;-139.48;100.00;61774.03;5032753;28;20183;-68
2021/11/05 10:52:18;;;;;;;11.23;8.07;;;;;;;-139.48;100.00;61774.03;5020213;28;20098;-69
2021/11/05 10:55:02;;;;;;;10.60;8.65;;;;;;;-139.48;100.00;61774.03;5021266;28;20487;-69
2021/11/05 10:57:48;;;;;;;10.57;7.30;;;;;;;-139.48;100.00;61774.03;5021422;28;20044;-69
2021/11/05 11:00:33;;;;;;;9.23;7.60;;;;;;;-139.48;100.00;61774.03;5021342;28;20083;-69
2021/11/05 11:03:25;;;;;;;9.70;7.40;;;;;;;-139.48;100.00;61774.03;5020998;28;20049;-69
2021/11/05 11:06:13;;;;;;;8.15;6.28;;;;;;;-139.48;100.00;61774.03;5021664;28;20045;-69
2021/11/05 11:09:06;;;;;;;8.48;7.40;;;;;;;-139.48;100.00;61774.03;5021378;28;20044;-69
2021/11/05 11:11:54;;;;;;;10.30;7.30;;;;;;;-139.48;100.00;61774.03;5020713;28;20052;-68
2021/11/05 11:14:38;;;;;;;7.85;6.50;;;;;;;-139.48;100.00;61774.03;5007216;28;20048;-69
2021/11/05 11:17:22;;;;;;;8.77;7.15;;;;;;;-139.48;100.00;61774.03;5020668;28;20048;-69
2021/11/05 11:20:30;;;;;;;8.80;6.90;;;;;;;-139.48;100.00;61774.03;5020709;28;20133;-69
2021/11/05 11:23:14;;;;;;;11.23;8.40;;;;;;;-139.48;100.00;61774.03;5021007;28;20049;-69
2021/11/05 11:25:59;;;;;;;8.40;6.85;;;;;;;-139.48;100.00;61774.03;5020569;28;20091;-69
2021/11/05 11:28:43;;;;;;;8.48;7.10;;;;;;;-139.48;100.00;61774.03;5020880;28;20044;-69
2021/11/05 11:31:27;;;;;;;7.07;6.30;;;;;;;-139.48;100.00;61774.03;5035894;28;20056;-69
2021/11/05 11:34:13;;;;;;;8.07;6.57;;;;;;;-139.48;100.00;61774.03;5020761;28;20516;-68
2021/11/05 11:37:01;;;;;;;9.38;7.28;;;;;;;-139.48;100.00;61774.03;5020416;28;20098;-69
2021/11/05 11:39:44;;;;;;;11.80;7.43;;;;;;;-139.48;100.00;61774.03;5020601;28;20086;-69
2021/11/05 11:42:28;;;;;;;13.18;8.43;;;;;;;-139.48;100.00;61774.03;5020554;28;20052;-68
2021/11/05 11:45:14;;;;;;;8.70;7.00;;;;;;;-139.48;100.00;61774.03;5006357;28;20099;-69
2021/11/05 11:47:59;;;;;;;6.95;6.15;;;;;;;-139.48;100.00;61774.03;5020404;28;20091;-69
2021/11/05 11:50:43;;;;;;;9.02;7.25;;;;;;;-139.48;100.00;61774.03;5020675;28;20051;-69
2021/11/05 11:53:31;;;;;;;8.15;6.70;;;;;;;-139.48;100.00;61774.03;5020405;28;20067;-69
2021/11/05 11:56:33;;;;;;;8.80;6.70;;;;;;;-139.48;100.00;61774.03;5020397;28;20525;-70
2021/11/05 11:59:17;;;;;;;9.65;7.53;;;;;;;-139.48;100.00;61774.03;5006394;28;20047;-69
2021/11/05 12:02:01;;;;;;;9.30;7.25;;;;;;;-139.48;100.00;61774.03;5020124;28;20079;-69
2021/11/05 12:04:45;;;;;;;9.57;6.38;;;;;;;-139.48;100.00;61774.03;5034841;28;20087;-68
2021/11/05 12:07:29;;;;;;;9.30;6.70;;;;;;;-139.48;100.00;61774.03;5006215;28;20124;-69
2021/11/05 12:10:27;;;;;;;12.43;8.70;;;;;;;-139.48;100.00;61774.03;5034766;28;20047;-69
2021/11/05 12:13:33;;;;;;;13.75;9.57;;;;;;;-139.48;100.00;61774.03;5006291;28;20060;-69
2021/11/05 12:16:24;;;;;;;16.15;10.25;;;;;;;-139.48;100.00;61774.03;5035097;28;20087;-69
2021/11/05 12:19:12;;;;;;;10.13;7.40;;;;;;;-139.48;100.00;61774.03;5020286;28;20064;-69